createdAt,value
2019-02-05T00:01:17.233Z,50.63
2019-02-05T00:03:45.856Z,54.80
2019-02-05T00:06:15.019Z,52.13
2019-02-05T00:08:43.706Z,51.93
2019-02-05T00:11:12.422Z,53.30
2019-02-05T00:13:41.382Z,52.67
2019-02-05T00:16:13.348Z,52.50
2019-02-05T00:18:42.597Z,51.10
2019-02-05T00:21:11.263Z,50.40
2019-02-05T00:23:48.117Z,52.67
2019-02-05T00:26:17.750Z,53.93
2019-02-05T00:28:50.947Z,54.90
2019-02-05T00:31:29.043Z,52.10
2019-02-05T00:34:11.029Z,57.60
2019-02-05T00:36:39.985Z,58.27
2019-02-05T00:39:08.910Z,50.03
2019-02-05T00:41:46.452Z,52.77
2019-02-05T00:44:15.562Z,55.20
2019-02-05T00:46:44.103Z,61.37
2019-02-05T00:49:12.695Z,54.07
2019-02-05T00:51:44.456Z,63.83
2019-02-05T00:54:13.996Z,56.80
2019-02-05T00:56:43.158Z,58.30
2019-02-05T00:59:12.658Z,61.43
2019-02-05T01:01:41.750Z,56.17
2019-02-05T01:04:15.277Z,58.23
2019-02-05T01:06:47.112Z,55.40
2019-02-05T01:09:16.101Z,58.10
2019-02-05T01:11:45.383Z,53.60
2019-02-05T01:14:14.233Z,59.77
2019-02-05T01:16:43.018Z,55.87
2019-02-05T01:19:12.037Z,60.67
2019-02-05T01:21:41.091Z,60.20
2019-02-05T01:24:10.270Z,58.13
2019-02-05T01:26:43.421Z,55.47
2019-02-05T01:29:12.530Z,53.93
2019-02-05T01:31:42.842Z,58.80
2019-02-05T01:34:11.843Z,53.97
2019-02-05T01:36:43.639Z,56.10
2019-02-05T01:39:12.915Z,55.77
2019-02-05T01:41:41.984Z,57.13
2019-02-05T01:44:10.820Z,57.63
2019-02-05T01:46:42.089Z,51.70
2019-02-05T01:49:11.164Z,52.47
2019-02-05T01:51:40.075Z,54.80
2019-02-05T01:54:11.643Z,58.67
2019-02-05T01:56:43.990Z,54.40
2019-02-05T01:59:13.269Z,60.90
2019-02-05T02:01:44.732Z,57.47
2019-02-05T02:04:13.813Z,52.80
2019-02-05T02:06:42.842Z,55.60
2019-02-05T02:09:11.937Z,58.73
2019-02-05T02:11:41.053Z,63.67
2019-02-05T02:14:10.281Z,58.27
2019-02-05T02:16:42.062Z,60.00
2019-02-05T02:19:11.890Z,56.53
2019-02-05T02:21:40.663Z,60.20
2019-02-05T02:24:09.490Z,61.60
2019-02-05T02:26:38.688Z,59.87
2019-02-05T02:29:09.703Z,62.27
2019-02-05T02:31:43.296Z,63.97
2019-02-05T02:34:17.223Z,60.63
2019-02-05T02:36:47.781Z,61.83
2019-02-05T02:39:19.658Z,57.93
2019-02-05T02:41:49.142Z,57.67
2019-02-05T02:44:18.339Z,69.13
2019-02-05T02:46:53.463Z,67.30
2019-02-05T02:49:23.494Z,66.33
2019-02-05T02:52:01.085Z,70.13
2019-02-05T02:54:31.673Z,68.80
2019-02-05T02:57:04.867Z,66.20
2019-02-05T02:59:36.126Z,71.30
2019-02-05T03:02:05.386Z,70.43
2019-02-05T03:04:39.183Z,68.83
2019-02-05T03:07:12.272Z,69.43
2019-02-05T03:09:43.353Z,69.20
2019-02-05T03:12:12.449Z,70.73
2019-02-05T03:14:41.977Z,79.40
2019-02-05T03:17:11.240Z,75.40
2019-02-05T03:19:43.722Z,80.33
2019-02-05T03:22:15.441Z,75.83
2019-02-05T03:24:46.006Z,83.33
2019-02-05T03:27:19.855Z,83.70
2019-02-05T03:29:54.280Z,87.87
2019-02-05T03:32:23.719Z,86.03
2019-02-05T03:34:52.885Z,79.93
2019-02-05T03:37:22.144Z,85.83
2019-02-05T03:39:53.161Z,92.37
2019-02-05T03:42:22.831Z,93.87
2019-02-05T03:44:52.065Z,97.23
2019-02-05T03:47:21.835Z,88.97
2019-02-05T03:49:50.988Z,94.20
2019-02-05T03:52:21.838Z,94.60
2019-02-05T03:55:08.542Z,89.90
2019-02-05T03:57:53.636Z,93.67
2019-02-05T04:01:02.576Z,96.20
2019-02-05T04:04:02.963Z,96.20
2019-02-05T04:06:55.216Z,101.00
2019-02-05T04:10:01.692Z,100.00
2019-02-05T04:12:35.381Z,92.00
2019-02-05T04:15:07.810Z,103.10
2019-02-05T04:18:07.644Z,100.37
2019-02-05T04:20:55.200Z,108.63
2019-02-05T04:23:43.864Z,109.00
2019-02-05T04:26:34.092Z,107.60
2019-02-05T04:29:36.849Z,109.90
2019-02-05T04:32:26.004Z,113.80
2019-02-05T04:35:14.754Z,112.83
2019-02-05T04:38:06.174Z,114.13
2019-02-05T04:40:41.956Z,111.53
2019-02-05T04:43:34.810Z,114.40
2019-02-05T04:46:08.648Z,118.00
2019-02-05T04:48:59.566Z,119.90
2019-02-05T04:51:47.433Z,119.87
2019-02-05T04:54:32.973Z,113.57
2019-02-05T04:57:13.769Z,119.50
2019-02-05T05:00:05.152Z,117.33
2019-02-05T05:02:51.903Z,127.80
2019-02-05T05:05:28.676Z,121.63
2019-02-05T05:08:25.623Z,122.50
2019-02-05T05:10:54.752Z,126.77
2019-02-05T05:13:23.870Z,131.30
2019-02-05T05:15:58.321Z,129.53
2019-02-05T05:18:30.097Z,126.50
2019-02-05T05:21:00.340Z,135.97
2019-02-05T05:23:29.401Z,134.43
2019-02-05T05:26:01.460Z,130.23
2019-02-05T05:28:30.610Z,133.27
2019-02-05T05:30:59.652Z,133.77
2019-02-05T05:33:28.870Z,128.03
2019-02-05T05:35:57.990Z,139.50
2019-02-05T05:38:27.044Z,136.00
2019-02-05T05:41:04.269Z,143.07
2019-02-05T05:43:33.795Z,142.67
2019-02-05T05:46:02.749Z,156.47
2019-02-05T05:48:31.601Z,142.43
2019-02-05T05:51:00.194Z,153.90
2019-02-05T05:53:29.003Z,151.20
2019-02-05T05:55:59.173Z,159.27
2019-02-05T05:58:27.939Z,163.83
2019-02-05T06:00:56.907Z,149.97
2019-02-05T06:03:25.623Z,150.47
2019-02-05T06:05:55.666Z,171.07
2019-02-05T06:08:27.892Z,180.80
2019-02-05T06:10:56.877Z,163.50
2019-02-05T06:13:25.901Z,172.30
2019-02-05T06:15:54.861Z,179.27
2019-02-05T06:18:23.827Z,159.63
2019-02-05T06:20:53.060Z,179.87
2019-02-05T06:23:22.000Z,164.07
2019-02-05T06:25:58.970Z,179.47
2019-02-05T06:28:34.799Z,184.40
2019-02-05T06:31:21.264Z,187.23
2019-02-05T06:33:49.332Z,190.30
2019-02-05T06:36:18.141Z,194.47
2019-02-05T06:38:50.442Z,197.27
2019-02-05T06:41:22.094Z,202.43
2019-02-05T06:43:59.904Z,214.67
2019-02-05T06:46:29.907Z,196.70
2019-02-05T06:48:58.692Z,208.63
2019-02-05T06:51:52.058Z,210.43
2019-02-05T06:57:36.956Z,211.60
2019-02-05T07:00:14.205Z,209.87
2019-02-05T07:07:13.441Z,226.53
2019-02-05T07:10:16.445Z,207.70
2019-02-05T07:12:53.815Z,228.60
2019-02-05T07:15:22.973Z,206.67
2019-02-05T07:17:51.544Z,233.00
2019-02-05T07:20:20.280Z,225.30
2019-02-05T07:22:51.568Z,248.63
2019-02-05T07:25:20.340Z,231.10
2019-02-05T07:27:48.936Z,237.30
2019-02-05T07:30:18.959Z,224.77
2019-02-05T07:32:47.607Z,215.77
2019-02-05T07:35:16.351Z,228.10
2019-02-05T07:37:45.094Z,225.63
2019-02-05T07:40:14.380Z,230.53
2019-02-05T07:42:44.602Z,231.47
2019-02-05T07:45:14.529Z,228.00
2019-02-05T07:47:43.422Z,193.30
2019-02-05T07:50:16.313Z,221.00
2019-02-05T07:52:44.956Z,210.00
2019-02-05T07:55:13.545Z,218.47
2019-02-05T07:57:42.553Z,217.63
2019-02-05T08:00:15.886Z,247.60
2019-02-05T08:02:44.568Z,188.93
2019-02-05T08:05:17.019Z,198.93
2019-02-05T08:07:45.662Z,184.03
2019-02-05T08:10:17.165Z,206.97
2019-02-05T08:12:46.276Z,207.83
2019-02-05T08:15:15.725Z,195.73
2019-02-05T08:17:44.611Z,190.43
2019-02-05T08:20:16.457Z,193.27
2019-02-05T08:22:45.552Z,197.20
2019-02-05T08:25:19.771Z,193.87
2019-02-05T08:27:59.711Z,199.07
2019-02-05T08:33:09.336Z,186.80
2019-02-05T15:10:26.295Z,87.50
2019-02-05T15:13:07.029Z,78.43
2019-02-05T15:15:41.214Z,82.90
2019-02-05T15:21:57.218Z,80.03
2019-02-05T15:38:21.201Z,73.73
2019-02-05T15:47:28.413Z,74.17
2019-02-05T16:08:38.550Z,73.13
2019-02-05T16:33:02.959Z,76.27
2019-02-05T16:35:35.023Z,76.17
2019-02-05T16:38:03.833Z,83.13
2019-02-05T16:40:37.907Z,78.37
2019-02-05T16:43:09.635Z,79.13
2019-02-05T16:45:41.871Z,81.13
2019-02-05T16:48:12.028Z,82.73
2019-02-05T16:50:42.523Z,77.23
2019-02-05T16:53:13.484Z,87.90
2019-02-05T16:55:42.913Z,81.43
2019-02-05T16:58:13.393Z,83.57
2019-02-05T17:00:50.898Z,80.70
2019-02-05T17:03:16.478Z,75.47
2019-02-05T17:05:47.894Z,76.13
2019-02-05T17:08:18.915Z,81.03
2019-02-05T17:10:47.856Z,85.47
2019-02-05T17:13:17.179Z,79.93
2019-02-05T17:15:49.040Z,78.50
2019-02-05T17:18:23.563Z,74.57
2019-02-05T17:20:48.572Z,68.97
2019-02-05T17:23:17.667Z,73.13
2019-02-05T17:25:53.796Z,69.77
2019-02-05T17:28:24.881Z,66.33
2019-02-05T17:30:53.965Z,65.23
2019-02-05T17:33:23.056Z,61.27
2019-02-05T17:35:54.698Z,62.13
2019-02-05T17:38:25.646Z,57.17
2019-02-05T17:40:56.599Z,58.77
2019-02-05T17:44:04.103Z,59.70
2019-02-05T19:22:17.975Z,53.97
2019-02-05T19:25:10.418Z,53.10
2019-02-05T19:27:40.286Z,54.30
2019-02-05T19:33:26.413Z,50.60
2019-02-05T19:36:15.794Z,49.40
2019-02-05T19:38:47.972Z,45.53
2019-02-05T19:41:24.601Z,44.50
2019-02-05T19:43:59.431Z,49.23
2019-02-05T19:47:02.906Z,41.93
2019-02-05T19:49:34.073Z,45.67
2019-02-05T21:41:31.274Z,20.83
2019-02-05T21:58:03.904Z,20.53
2019-02-05T22:00:37.555Z,21.37
2019-02-05T22:03:17.598Z,23.23
2019-02-05T22:06:02.426Z,25.67
2019-02-05T22:08:39.997Z,23.27
2019-02-05T22:11:25.893Z,22.37
2019-02-05T22:14:07.441Z,24.10
2019-02-05T22:16:42.078Z,20.60
2019-02-05T22:19:14.926Z,21.03
2019-02-05T22:21:44.078Z,21.57
2019-02-05T22:24:12.946Z,18.70
2019-02-05T22:26:44.696Z,19.47
2019-02-05T22:29:13.589Z,17.20
2019-02-05T22:31:42.497Z,17.60
2019-02-05T22:34:11.718Z,17.67
2019-02-05T22:36:42.430Z,16.60
2019-02-05T22:39:13.690Z,14.40
2019-02-05T22:41:42.613Z,15.70
2019-02-05T22:44:11.523Z,15.13
2019-02-05T22:46:42.346Z,15.50
2019-02-05T22:49:11.233Z,18.33
2019-02-05T22:51:43.279Z,16.40
2019-02-05T22:54:12.038Z,17.43
2019-02-05T22:56:40.966Z,17.23
2019-02-05T22:59:09.970Z,16.93
2019-02-05T23:01:46.961Z,16.70
2019-02-05T23:04:50.481Z,16.27
2019-02-05T23:07:14.952Z,17.87
2019-02-05T23:09:51.698Z,17.07
2019-02-05T23:12:39.728Z,18.77
2019-02-05T23:15:13.444Z,15.73
2019-02-05T23:17:42.839Z,17.33
2019-02-05T23:20:13.342Z,16.10
2019-02-05T23:22:42.238Z,17.73
2019-02-05T23:25:11.126Z,17.53
2019-02-05T23:27:42.553Z,19.77
2019-02-05T23:30:12.689Z,16.90
2019-02-05T23:32:41.475Z,20.97
2019-02-05T23:35:10.228Z,17.60
2019-02-05T23:37:57.812Z,17.80
2019-02-05T23:40:26.702Z,18.50
2019-02-05T23:43:00.038Z,18.37
2019-02-05T23:45:28.885Z,20.70
2019-02-05T23:48:00.544Z,21.10
2019-02-05T23:50:29.861Z,17.30
2019-02-05T23:52:58.883Z,16.33
2019-02-05T23:56:23.992Z,21.63
2019-02-05T23:58:54.583Z,19.30
